createdAt,value
2019-04-06T00:00:05.096Z,8.28
2019-04-06T00:02:36.646Z,8.70
2019-04-06T00:05:06.648Z,8.60
2019-04-06T00:07:38.125Z,7.95
2019-04-06T00:10:09.178Z,8.40
2019-04-06T00:12:39.166Z,7.85
2019-04-06T00:15:12.046Z,8.25
2019-04-06T00:17:46.903Z,7.97
2019-04-06T00:20:16.635Z,8.20
2019-04-06T00:22:53.806Z,8.40
2019-04-06T00:25:28.056Z,8.60
2019-04-06T00:27:57.107Z,8.35
2019-04-06T00:30:25.906Z,8.10
2019-04-06T00:32:58.146Z,7.92
2019-04-06T00:35:28.175Z,8.05
2019-04-06T00:37:57.096Z,7.53
2019-04-06T00:40:25.786Z,8.03
2019-04-06T00:42:57.087Z,7.78
2019-04-06T00:45:36.705Z,7.92
2019-04-06T00:48:06.159Z,7.80
2019-04-06T00:50:36.256Z,7.75
2019-04-06T00:53:07.206Z,7.70
2019-04-06T00:55:39.656Z,7.90
2019-04-06T00:58:09.195Z,7.30
2019-04-06T01:00:41.285Z,8.20
2019-04-06T01:03:16.586Z,7.25
2019-04-06T01:05:47.526Z,8.03
2019-04-06T01:08:19.966Z,7.90
2019-04-06T01:10:49.206Z,7.40
2019-04-06T01:13:19.326Z,7.62
2019-04-06T01:15:50.146Z,7.55
2019-04-06T01:18:18.826Z,7.55
2019-04-06T01:20:51.047Z,7.85
2019-04-06T01:23:26.146Z,7.72
2019-04-06T01:26:07.620Z,7.83
2019-04-06T01:28:38.286Z,7.72
2019-04-06T01:33:40.366Z,7.28
2019-04-06T01:36:12.688Z,7.37
2019-04-06T01:38:42.125Z,7.65
2019-04-06T01:41:13.149Z,7.83
2019-04-06T01:43:43.185Z,7.53
2019-04-06T01:46:15.314Z,7.60
2019-04-06T01:48:45.239Z,7.45
2019-04-06T01:51:14.976Z,7.40
2019-04-06T01:53:45.386Z,7.33
2019-04-06T01:56:18.773Z,7.83
2019-04-06T01:58:46.394Z,7.40
2019-04-06T02:01:20.265Z,7.42
2019-04-06T02:03:48.906Z,7.78
2019-04-06T02:06:19.166Z,7.33
2019-04-06T02:08:51.455Z,7.65
2019-04-06T02:11:22.687Z,7.28
2019-04-06T02:13:53.161Z,7.20
2019-04-06T02:16:21.906Z,7.53
2019-04-06T02:18:52.110Z,7.40
2019-04-06T02:21:24.075Z,7.28
2019-04-06T02:23:56.255Z,7.33
2019-04-06T02:26:34.061Z,7.92
2019-04-06T02:29:02.808Z,7.50
2019-04-06T02:31:43.870Z,6.70
2019-04-06T02:34:33.195Z,6.92
2019-04-06T02:37:16.702Z,7.33
2019-04-06T02:39:56.107Z,7.50
2019-04-06T02:42:31.287Z,7.70
2019-04-06T02:45:05.002Z,7.17
2019-04-06T02:47:33.906Z,7.53
2019-04-06T02:50:05.127Z,7.33
2019-04-06T02:52:37.154Z,7.08
2019-04-06T02:55:07.916Z,7.30
2019-04-06T03:00:07.851Z,6.95
2019-04-06T03:02:38.287Z,7.55
2019-04-06T03:05:08.707Z,7.17
2019-04-06T03:07:40.946Z,7.17
2019-04-06T03:10:12.828Z,7.67
2019-04-06T03:12:42.371Z,7.20
2019-04-06T03:15:13.373Z,6.90
2019-04-06T03:17:42.787Z,7.53
2019-04-06T03:20:14.787Z,7.00
2019-04-06T03:22:48.446Z,6.40
2019-04-06T03:25:17.168Z,7.12
2019-04-06T03:27:46.808Z,7.22
2019-04-06T03:30:19.769Z,6.70
2019-04-06T03:32:52.577Z,7.15
2019-04-06T03:35:23.747Z,7.47
2019-04-06T03:37:52.810Z,7.10
2019-04-06T03:40:21.699Z,7.17
2019-04-06T03:42:53.311Z,6.83
2019-04-06T03:45:22.998Z,7.22
2019-04-06T03:47:51.914Z,7.03
2019-04-06T03:50:20.667Z,7.37
2019-04-06T03:52:49.488Z,6.70
2019-04-06T03:55:18.577Z,6.72
2019-04-06T03:57:47.492Z,7.12
2019-04-06T04:00:16.366Z,7.35
2019-04-06T04:02:45.145Z,7.17
2019-04-06T04:05:14.055Z,6.78
2019-04-06T04:07:42.947Z,6.70
2019-04-06T04:10:14.993Z,6.85
2019-04-06T04:12:44.998Z,6.90
2019-04-06T04:15:14.111Z,7.62
2019-04-06T04:17:42.994Z,6.55
2019-04-06T04:20:11.878Z,7.30
2019-04-06T04:22:44.163Z,7.00
2019-04-06T04:25:13.347Z,6.65
2019-04-06T04:27:43.378Z,6.87
2019-04-06T04:30:15.223Z,7.17
2019-04-06T04:32:44.452Z,6.80
2019-04-06T04:35:13.980Z,6.72
2019-04-06T04:37:43.496Z,7.50
2019-04-06T04:40:21.758Z,7.00
2019-04-06T04:42:50.646Z,6.70
2019-04-06T04:45:19.536Z,6.87
2019-04-06T04:47:51.282Z,6.78
2019-04-06T04:50:20.387Z,7.08
2019-04-06T04:52:49.075Z,6.58
2019-04-06T04:55:21.197Z,6.70
2019-04-06T04:57:50.373Z,6.55
2019-04-06T05:00:19.432Z,6.70
2019-04-06T05:02:48.219Z,6.45
2019-04-06T05:05:17.113Z,7.10
2019-04-06T05:07:45.911Z,6.40
2019-04-06T05:10:14.878Z,6.75
2019-04-06T05:12:43.786Z,6.53
2019-04-06T05:15:15.365Z,6.87
2019-04-06T05:17:47.036Z,6.67
2019-04-06T05:20:15.890Z,6.35
2019-04-06T05:22:44.854Z,6.58
2019-04-06T05:25:13.743Z,6.62
2019-04-06T05:27:51.467Z,6.50
2019-04-06T05:30:13.229Z,6.97
2019-04-06T05:32:42.268Z,6.80
2019-04-06T05:35:13.825Z,6.12
2019-04-06T05:37:42.716Z,6.90
2019-04-06T05:40:11.636Z,6.87
2019-04-06T05:42:40.376Z,6.08
2019-04-06T05:45:09.453Z,6.28
2019-04-06T05:47:38.485Z,6.67
2019-04-06T05:50:07.376Z,6.25
2019-04-06T05:52:36.257Z,6.15
2019-04-06T05:55:08.232Z,6.47
2019-04-06T05:57:37.862Z,6.30
2019-04-06T06:00:10.166Z,6.28
2019-04-06T06:02:41.367Z,6.17
2019-04-06T06:05:10.482Z,6.30
2019-04-06T06:07:39.346Z,6.75
2019-04-06T06:10:08.372Z,6.75
2019-04-06T06:12:37.335Z,6.50
2019-04-06T06:15:08.534Z,6.60
2019-04-06T06:17:37.466Z,6.60
2019-04-06T06:20:10.766Z,6.42
2019-04-06T06:22:39.655Z,6.28
2019-04-06T06:25:08.575Z,6.53
2019-04-06T06:27:40.409Z,6.37
2019-04-06T06:30:09.286Z,6.45
2019-04-06T06:32:37.975Z,6.28
2019-04-06T06:35:06.755Z,6.05
2019-04-06T06:37:37.209Z,6.17
2019-04-06T06:40:07.376Z,6.30
2019-04-06T06:42:36.197Z,6.60
2019-04-06T06:45:05.957Z,6.37
2019-04-06T06:47:34.695Z,6.62
2019-04-06T06:50:04.543Z,6.33
2019-04-06T06:52:33.286Z,5.87
2019-04-06T06:55:02.187Z,6.47
2019-04-06T06:57:30.965Z,6.12
2019-04-06T06:59:59.857Z,6.00
2019-04-06T07:02:28.764Z,6.53
2019-04-06T07:04:57.636Z,5.80
2019-04-06T07:07:26.527Z,6.60
2019-04-06T07:10:04.688Z,6.35
2019-04-06T07:12:26.677Z,6.45
2019-04-06T07:14:58.787Z,5.95
2019-04-06T07:17:27.836Z,6.10
2019-04-06T07:19:56.727Z,6.30
2019-04-06T07:22:25.506Z,6.12
2019-04-06T07:24:55.492Z,6.00
2019-04-06T07:27:24.578Z,6.75
2019-04-06T07:29:53.414Z,5.90
2019-04-06T07:32:22.077Z,6.40
2019-04-06T07:34:52.535Z,6.05
2019-04-06T07:37:21.425Z,5.67
2019-04-06T07:39:52.784Z,7.10
2019-04-06T07:42:21.509Z,7.65
2019-04-06T07:44:50.205Z,7.47
2019-04-06T07:47:18.987Z,10.72
2019-04-06T07:49:47.685Z,10.88
2019-04-06T07:52:16.409Z,10.23
2019-04-06T07:54:45.398Z,10.20
2019-04-06T07:57:14.384Z,10.15
2019-04-06T07:59:43.387Z,10.25
2019-04-06T08:02:12.115Z,10.95
2019-04-06T08:04:40.976Z,10.88
2019-04-06T08:07:09.702Z,9.78
2019-04-06T08:09:38.703Z,11.57
2019-04-06T08:12:08.417Z,11.88
2019-04-06T08:14:37.115Z,10.88
2019-04-06T08:17:07.868Z,11.43
2019-04-06T08:22:08.306Z,11.78
2019-04-06T08:24:38.338Z,12.03
2019-04-06T08:27:09.666Z,11.57
2019-04-06T08:29:40.515Z,11.85
2019-04-06T08:32:10.425Z,11.93
2019-04-06T08:34:40.248Z,11.07
2019-04-06T08:37:12.405Z,11.50
2019-04-06T08:39:41.263Z,11.03
2019-04-06T08:42:10.201Z,11.57
2019-04-06T08:44:40.611Z,10.80
2019-04-06T08:47:10.335Z,11.55
2019-04-06T08:49:41.375Z,11.60
2019-04-06T08:52:11.633Z,11.25
2019-04-06T08:54:42.712Z,10.65
2019-04-06T08:57:13.595Z,11.40
2019-04-06T08:59:43.086Z,11.60
2019-04-06T09:02:15.664Z,10.40
2019-04-06T09:04:46.317Z,11.08
2019-04-06T09:09:47.865Z,10.85
2019-04-06T09:12:21.661Z,10.68
2019-04-06T09:14:53.608Z,11.08
2019-04-06T09:17:23.544Z,11.35
2019-04-06T09:19:53.037Z,10.48
2019-04-06T09:22:24.123Z,11.05
2019-04-06T09:24:54.692Z,10.00
2019-04-06T09:27:25.548Z,10.15
2019-04-06T09:32:25.483Z,9.85
2019-04-06T09:34:55.097Z,10.78
2019-04-06T09:37:25.005Z,10.63
2019-04-06T09:39:54.228Z,10.47
2019-04-06T09:42:23.913Z,10.48
2019-04-06T09:45:04.176Z,9.73
2019-04-06T09:47:41.965Z,10.60
2019-04-06T09:50:14.462Z,9.53
2019-04-06T09:53:00.852Z,9.85
2019-04-06T09:55:36.796Z,9.53
2019-04-06T09:58:08.256Z,8.98
2019-04-06T10:00:38.874Z,9.45
2019-04-06T10:03:20.026Z,9.78
2019-04-06T10:06:00.875Z,9.80
2019-04-06T10:08:51.175Z,9.48
2019-04-06T10:11:26.590Z,9.58
2019-04-06T10:14:00.059Z,9.23
2019-04-06T10:16:38.668Z,9.45
2019-04-06T10:19:14.036Z,9.23
2019-04-06T10:22:03.497Z,9.48
2019-04-06T10:24:42.641Z,9.43
2019-04-06T10:27:31.701Z,9.18
2019-04-06T10:30:20.247Z,9.35
2019-04-06T10:32:54.146Z,8.90
2019-04-06T10:35:46.805Z,8.50
2019-04-06T10:38:35.147Z,8.83
2019-04-06T10:41:09.147Z,9.30
2019-04-06T10:43:52.584Z,9.13
2019-04-06T10:46:39.749Z,8.93
2019-04-06T10:49:14.226Z,8.58
2019-04-06T10:52:01.330Z,8.80
2019-04-06T10:54:48.375Z,8.33
2019-04-06T10:57:30.501Z,8.88
2019-04-06T11:00:07.767Z,8.75
2019-04-06T11:02:51.885Z,8.33
2019-04-06T11:05:38.096Z,7.97
2019-04-06T11:08:17.539Z,8.93
2019-04-06T11:10:49.567Z,8.28
2019-04-06T11:13:27.215Z,8.50
2019-04-06T11:16:15.753Z,8.30
2019-04-06T11:19:04.817Z,7.83
2019-04-06T11:21:35.525Z,8.58
2019-04-06T11:24:25.018Z,7.95
2019-04-06T11:27:06.943Z,7.80
2019-04-06T11:29:50.235Z,8.15
2019-04-06T11:32:36.607Z,8.40
2019-04-06T11:35:14.754Z,7.70
2019-04-06T11:37:47.225Z,8.35
2019-04-06T11:40:19.292Z,8.00
2019-04-06T11:42:52.332Z,8.40
2019-04-06T11:45:25.606Z,7.60
2019-04-06T11:47:59.265Z,7.97
2019-04-06T11:50:42.065Z,8.15
2019-04-06T11:53:28.075Z,7.83
2019-04-06T11:56:01.578Z,8.03
2019-04-06T11:58:31.564Z,7.33
2019-04-06T12:01:02.531Z,7.90
2019-04-06T12:03:37.776Z,8.45
2019-04-06T12:06:27.397Z,7.87
2019-04-06T12:09:05.146Z,8.05
2019-04-06T12:11:36.057Z,8.25
2019-04-06T12:14:07.045Z,7.30
2019-04-06T12:16:46.226Z,8.30
2019-04-06T12:19:23.113Z,8.20
2019-04-06T12:21:59.722Z,8.60
2019-04-06T12:24:42.533Z,8.35
2019-04-06T12:27:18.467Z,8.73
2019-04-06T12:30:01.706Z,8.40
2019-04-06T12:32:48.423Z,8.23
2019-04-06T12:35:35.640Z,8.75
2019-04-06T12:38:09.545Z,7.92
2019-04-06T12:40:46.445Z,8.13
2019-04-06T12:43:32.018Z,8.00
2019-04-06T12:46:09.805Z,8.45
2019-04-06T12:48:58.865Z,8.05
2019-04-06T12:51:36.600Z,7.67
2019-04-06T12:54:21.276Z,8.43
2019-04-06T12:57:05.176Z,8.38
2019-04-06T12:59:53.385Z,8.58
2019-04-06T13:02:30.607Z,7.97
2019-04-06T13:05:19.766Z,8.18
2019-04-06T13:08:08.115Z,7.80
2019-04-06T13:10:39.374Z,7.95
2019-04-06T13:13:13.385Z,8.10
2019-04-06T13:16:03.355Z,8.00
2019-04-06T13:18:35.732Z,7.83
2019-04-06T13:21:06.285Z,8.10
2019-04-06T13:23:55.464Z,8.13
2019-04-06T13:26:36.705Z,8.28
2019-04-06T13:29:23.245Z,8.63
2019-04-06T13:31:58.346Z,8.58
2019-04-06T13:34:32.302Z,7.28
2019-04-06T13:37:08.745Z,8.20
2019-04-06T13:39:47.655Z,8.75
2019-04-06T13:42:28.434Z,8.45
2019-04-06T13:45:04.235Z,8.25
2019-04-06T13:47:34.505Z,7.90
2019-04-06T13:50:20.595Z,8.15
2019-04-06T13:52:55.285Z,8.85
2019-04-06T13:55:36.689Z,8.68
2019-04-06T13:58:13.274Z,7.80
2019-04-06T14:01:13.604Z,8.40
2019-04-06T14:03:37.692Z,8.33
2019-04-06T14:06:28.294Z,8.18
2019-04-06T14:09:11.022Z,8.30
2019-04-06T14:11:59.910Z,8.20
2019-04-06T14:14:31.356Z,8.08
2019-04-06T14:17:19.145Z,7.97
2019-04-06T14:19:59.448Z,8.65
2019-04-06T14:22:49.453Z,7.80
2019-04-06T14:25:29.524Z,8.13
2019-04-06T14:28:02.074Z,9.00
2019-04-06T14:30:48.007Z,7.95
2019-04-06T14:33:23.136Z,8.98
2019-04-06T14:36:02.791Z,7.95
2019-04-06T14:38:49.406Z,8.53
2019-04-06T14:41:22.986Z,7.87
2019-04-06T14:43:56.205Z,7.92
2019-04-06T14:46:36.646Z,7.78
2019-04-06T14:49:30.220Z,7.95
2019-04-06T14:51:59.136Z,8.95
2019-04-06T14:54:30.977Z,8.13
2019-04-06T14:57:02.927Z,8.05
2019-04-06T14:59:51.091Z,8.50
2019-04-06T15:02:23.117Z,8.48
2019-04-06T15:05:05.025Z,7.65
2019-04-06T15:07:36.937Z,7.95
2019-04-06T15:10:25.265Z,7.90
2019-04-06T15:12:59.824Z,7.72
2019-04-06T15:15:40.106Z,9.35
2019-04-06T15:18:19.756Z,8.33
2019-04-06T15:21:01.856Z,7.92
2019-04-06T15:23:32.913Z,8.28
2019-04-06T15:26:22.386Z,7.85
2019-04-06T15:29:09.667Z,8.00
2019-04-06T15:31:57.628Z,8.03
2019-04-06T15:34:30.635Z,7.97
2019-04-06T15:37:07.479Z,8.33
2019-04-06T15:39:42.532Z,7.53
2019-04-06T15:42:16.746Z,8.40
2019-04-06T15:44:55.866Z,8.18
2019-04-06T15:47:30.916Z,8.28
2019-04-06T15:50:03.757Z,7.95
2019-04-06T15:52:51.246Z,7.67
2019-04-06T15:55:25.869Z,7.37
2019-04-06T15:57:57.095Z,7.55
2019-04-06T16:00:44.918Z,7.47
2019-04-06T16:03:15.146Z,7.58
2019-04-06T16:06:03.782Z,9.43
2019-04-06T16:08:43.256Z,7.62
2019-04-06T16:11:29.241Z,7.95
2019-04-06T16:14:02.649Z,8.00
2019-04-06T16:16:50.937Z,7.95
2019-04-06T16:19:33.914Z,7.70
2019-04-06T16:22:08.524Z,7.80
2019-04-06T16:24:48.765Z,7.78
2019-04-06T16:27:35.564Z,7.85
2019-04-06T16:30:24.493Z,8.20
2019-04-06T16:33:11.455Z,8.15
2019-04-06T16:35:58.693Z,7.53
2019-04-06T16:38:35.776Z,8.30
2019-04-06T16:41:11.217Z,8.30
2019-04-06T16:43:41.605Z,8.93
2019-04-06T16:46:12.985Z,7.78
2019-04-06T16:49:02.258Z,7.35
2019-04-06T16:51:38.497Z,8.05
2019-04-06T16:54:25.845Z,9.95
2019-04-06T16:57:07.420Z,8.03
2019-04-06T16:59:53.316Z,7.35
2019-04-06T17:02:35.339Z,7.08
2019-04-06T17:05:19.273Z,7.80
2019-04-06T17:07:56.024Z,8.05
2019-04-06T17:10:26.868Z,7.70
